sensor_id;sensor_type;location;lat;lon;timestamp;pressure;altitude;pressure_sealevel;temperature;humidity
48792;BME280;34587;48.816;9.420;2023-03-04T00:00:49;99378.13;;;-0.79;91.47
48792;BME280;34587;48.816;9.420;2023-03-04T00:03:15;99379.09;;;-0.75;91.56
48792;BME280;34587;48.816;9.420;2023-03-04T00:05:40;99367.00;;;-0.82;91.43
48792;BME280;34587;48.816;9.420;2023-03-04T00:08:06;99366.00;;;-0.86;91.04
48792;BME280;34587;48.816;9.420;2023-03-04T00:10:31;99377.00;;;-0.87;91.02
48792;BME280;34587;48.816;9.420;2023-03-04T00:12:56;99379.28;;;-0.93;91.78
48792;BME280;34587;48.816;9.420;2023-03-04T00:15:21;99372.03;;;-1.06;91.81
48792;BME280;34587;48.816;9.420;2023-03-04T00:17:47;99381.38;;;-1.05;92.03
48792;BME280;34587;48.816;9.420;2023-03-04T00:20:12;99383.72;;;-1.11;91.47
48792;BME280;34587;48.816;9.420;2023-03-04T00:22:38;99383.84;;;-1.07;91.80
48792;BME280;34587;48.816;9.420;2023-03-04T00:25:03;99371.91;;;-1.09;92.04
48792;BME280;34587;48.816;9.420;2023-03-04T00:27:29;99380.91;;;-1.17;92.21
48792;BME280;34587;48.816;9.420;2023-03-04T00:29:55;99381.38;;;-1.27;92.23
48792;BME280;34587;48.816;9.420;2023-03-04T00:32:20;99387.16;;;-1.09;92.08
48792;BME280;34587;48.816;9.420;2023-03-04T00:34:46;99385.31;;;-1.13;91.60
48792;BME280;34587;48.816;9.420;2023-03-04T00:37:11;99387.63;;;-1.19;91.77
48792;BME280;34587;48.816;9.420;2023-03-04T00:39:36;99383.91;;;-1.27;92.33
48792;BME280;34587;48.816;9.420;2023-03-04T00:42:01;99374.91;;;-1.19;92.68
48792;BME280;34587;48.816;9.420;2023-03-04T00:44:27;99373.78;;;-1.26;93.06
48792;BME280;34587;48.816;9.420;2023-03-04T00:46:52;99378.00;;;-1.26;93.33
48792;BME280;34587;48.816;9.420;2023-03-04T00:49:17;99379.06;;;-1.44;93.18
48792;BME280;34587;48.816;9.420;2023-03-04T00:51:43;99382.69;;;-1.37;93.77
48792;BME280;34587;48.816;9.420;2023-03-04T00:54:08;99382.31;;;-1.25;93.42
48792;BME280;34587;48.816;9.420;2023-03-04T00:56:33;99379.31;;;-1.15;94.83
48792;BME280;34587;48.816;9.420;2023-03-04T00:58:58;99384.72;;;-1.28;95.22
48792;BME280;34587;48.816;9.420;2023-03-04T05:17:25;99384.44;;;-3.15;96.64
48792;BME280;34587;48.816;9.420;2023-03-04T05:19:50;99382.59;;;-3.00;96.95
48792;BME280;34587;48.816;9.420;2023-03-04T05:22:15;99393.63;;;-3.17;96.57
48792;BME280;34587;48.816;9.420;2023-03-04T05:24:41;99387.13;;;-3.12;96.83
48792;BME280;34587;48.816;9.420;2023-03-04T05:27:06;99390.16;;;-3.19;96.35
48792;BME280;34587;48.816;9.420;2023-03-04T05:29:31;99391.91;;;-3.18;95.90
48792;BME280;34587;48.816;9.420;2023-03-04T05:31:56;99395.38;;;-3.16;96.11
48792;BME280;34587;48.816;9.420;2023-03-04T05:34:22;99394.28;;;-3.39;95.38
48792;BME280;34587;48.816;9.420;2023-03-04T05:36:47;99395.38;;;-3.34;96.17
48792;BME280;34587;48.816;9.420;2023-03-04T05:39:12;99398.50;;;-3.40;96.91
48792;BME280;34587;48.816;9.420;2023-03-04T05:41:37;99396.13;;;-3.37;97.40
48792;BME280;34587;48.816;9.420;2023-03-04T05:44:03;99400.94;;;-3.59;96.85
48792;BME280;34587;48.816;9.420;2023-03-04T05:46:28;99403.28;;;-3.46;97.18
48792;BME280;34587;48.816;9.420;2023-03-04T05:48:54;99397.84;;;-3.36;98.33
48792;BME280;34587;48.816;9.420;2023-03-04T05:51:20;99402.75;;;-3.39;98.93
48792;BME280;34587;48.816;9.420;2023-03-04T05:53:46;99400.44;;;-3.34;98.72
48792;BME280;34587;48.816;9.420;2023-03-04T05:56:14;99399.34;;;-3.39;98.36
48792;BME280;34587;48.816;9.420;2023-03-04T05:58:41;99407.53;;;-3.45;98.02
48792;BME280;34587;48.816;9.420;2023-03-04T06:01:06;99400.47;;;-3.52;97.44
48792;BME280;34587;48.816;9.420;2023-03-04T06:03:32;99404.19;;;-3.44;96.88
48792;BME280;34587;48.816;9.420;2023-03-04T06:05:58;99408.97;;;-3.50;96.03
48792;BME280;34587;48.816;9.420;2023-03-04T06:08:24;99405.66;;;-3.49;95.69
48792;BME280;34587;48.816;9.420;2023-03-04T06:10:51;99402.63;;;-3.42;95.73
48792;BME280;34587;48.816;9.420;2023-03-04T06:13:17;99402.47;;;-3.45;95.71
48792;BME280;34587;48.816;9.420;2023-03-04T06:15:43;99403.44;;;-3.43;95.04
48792;BME280;34587;48.816;9.420;2023-03-04T06:18:08;99406.25;;;-3.37;94.32
48792;BME280;34587;48.816;9.420;2023-03-04T06:20:33;99415.09;;;-3.28;93.17
48792;BME280;34587;48.816;9.420;2023-03-04T06:22:59;99414.66;;;-3.38;92.46
48792;BME280;34587;48.816;9.420;2023-03-04T06:25:24;99414.34;;;-3.44;92.37
48792;BME280;34587;48.816;9.420;2023-03-04T06:27:49;99419.47;;;-3.24;92.37
48792;BME280;34587;48.816;9.420;2023-03-04T06:30:15;99424.47;;;-3.08;92.27
48792;BME280;34587;48.816;9.420;2023-03-04T06:32:40;99418.91;;;-2.81;91.05
48792;BME280;34587;48.816;9.420;2023-03-04T06:35:09;99430.75;;;-2.63;90.37
48792;BME280;34587;48.816;9.420;2023-03-04T06:37:35;99435.78;;;-2.45;89.67
48792;BME280;34587;48.816;9.420;2023-03-04T06:40:00;99427.16;;;-2.29;89.21
48792;BME280;34587;48.816;9.420;2023-03-04T06:42:26;99436.59;;;-2.26;89.95
48792;BME280;34587;48.816;9.420;2023-03-04T06:44:51;99433.19;;;-2.08;89.95
48792;BME280;34587;48.816;9.420;2023-03-04T06:47:16;99441.53;;;-1.89;89.90
48792;BME280;34587;48.816;9.420;2023-03-04T06:49:42;99443.22;;;-1.90;88.97
48792;BME280;34587;48.816;9.420;2023-03-04T06:52:08;99438.66;;;-1.77;88.23
48792;BME280;34587;48.816;9.420;2023-03-04T06:54:36;99436.38;;;-1.71;87.76
48792;BME280;34587;48.816;9.420;2023-03-04T06:57:01;99435.22;;;-1.59;86.04
48792;BME280;34587;48.816;9.420;2023-03-04T06:59:26;99447.34;;;-1.72;86.95
48792;BME280;34587;48.816;9.420;2023-03-04T07:01:52;99448.94;;;-1.74;86.46
48792;BME280;34587;48.816;9.420;2023-03-04T07:04:17;99441.16;;;-1.58;86.25
48792;BME280;34587;48.816;9.420;2023-03-04T07:06:42;99442.44;;;-1.47;84.83
48792;BME280;34587;48.816;9.420;2023-03-04T07:09:07;99439.09;;;-1.46;84.98
48792;BME280;34587;48.816;9.420;2023-03-04T07:11:33;99434.81;;;-1.47;84.75
48792;BME280;34587;48.816;9.420;2023-03-04T07:13:58;99441.91;;;-1.40;85.22
48792;BME280;34587;48.816;9.420;2023-03-04T07:16:23;99441.56;;;-1.26;86.63
48792;BME280;34587;48.816;9.420;2023-03-04T07:18:49;99444.38;;;-1.41;85.88
48792;BME280;34587;48.816;9.420;2023-03-04T07:21:15;99456.00;;;-1.05;84.71
48792;BME280;34587;48.816;9.420;2023-03-04T07:23:42;99448.31;;;-1.06;85.08
48792;BME280;34587;48.816;9.420;2023-03-04T07:26:07;99461.91;;;-1.06;85.48
48792;BME280;34587;48.816;9.420;2023-03-04T07:28:34;99460.94;;;-0.87;86.12
48792;BME280;34587;48.816;9.420;2023-03-04T07:31:12;99460.75;;;-0.91;85.17
48792;BME280;34587;48.816;9.420;2023-03-04T07:33:42;99462.31;;;-0.72;83.77
48792;BME280;34587;48.816;9.420;2023-03-04T07:36:07;99458.88;;;-0.73;83.48
48792;BME280;34587;48.816;9.420;2023-03-04T07:38:33;99467.03;;;-0.59;82.41
48792;BME280;34587;48.816;9.420;2023-03-04T07:40:59;99466.69;;;-0.68;83.50
48792;BME280;34587;48.816;9.420;2023-03-04T07:43:24;99467.59;;;-0.44;82.21
48792;BME280;34587;48.816;9.420;2023-03-04T07:45:50;99472.03;;;-0.62;82.73
48792;BME280;34587;48.816;9.420;2023-03-04T07:48:15;99476.78;;;-0.71;83.88
48792;BME280;34587;48.816;9.420;2023-03-04T07:50:40;99474.19;;;-0.49;83.15
48792;BME280;34587;48.816;9.420;2023-03-04T07:53:05;99477.22;;;-0.37;82.99
48792;BME280;34587;48.816;9.420;2023-03-04T07:55:31;99476.63;;;-0.30;83.45
48792;BME280;34587;48.816;9.420;2023-03-04T07:57:56;99475.66;;;-0.33;82.97
48792;BME280;34587;48.816;9.420;2023-03-04T08:00:22;99479.13;;;-0.31;82.37
48792;BME280;34587;48.816;9.420;2023-03-04T08:02:47;99484.97;;;-0.34;83.29
48792;BME280;34587;48.816;9.420;2023-03-04T08:05:13;99483.78;;;-0.19;82.94
48792;BME280;34587;48.816;9.420;2023-03-04T08:07:38;99482.91;;;-0.20;82.63
48792;BME280;34587;48.816;9.420;2023-03-04T08:10:04;99482.38;;;-0.11;83.04
48792;BME280;34587;48.816;9.420;2023-03-04T08:12:30;99482.28;;;0.10;84.13
48792;BME280;34587;48.816;9.420;2023-03-04T08:14:55;99477.72;;;0.01;83.83
48792;BME280;34587;48.816;9.420;2023-03-04T08:17:20;99482.28;;;0.10;84.27
48792;BME280;34587;48.816;9.420;2023-03-04T08:19:45;99491.91;;;0.18;83.81
48792;BME280;34587;48.816;9.420;2023-03-04T08:22:11;99491.66;;;0.11;84.97
48792;BME280;34587;48.816;9.420;2023-03-04T08:24:36;99487.13;;;0.53;83.55
48792;BME280;34587;48.816;9.420;2023-03-04T08:27:02;99488.25;;;0.61;83.00
48792;BME280;34587;48.816;9.420;2023-03-04T08:29:28;99495.41;;;0.71;84.16
48792;BME280;34587;48.816;9.420;2023-03-04T08:31:53;99494.88;;;0.82;82.28
48792;BME280;34587;48.816;9.420;2023-03-04T08:34:21;99496.38;;;0.75;82.83
48792;BME280;34587;48.816;9.420;2023-03-04T08:36:47;99485.56;;;0.57;82.74
48792;BME280;34587;48.816;9.420;2023-03-04T08:39:15;99497.34;;;0.53;83.43
48792;BME280;34587;48.816;9.420;2023-03-04T08:41:41;99501.63;;;0.54;83.89
48792;BME280;34587;48.816;9.420;2023-03-04T08:44:07;99497.03;;;0.69;83.37
48792;BME280;34587;48.816;9.420;2023-03-04T08:46:35;99492.66;;;0.65;83.50
48792;BME280;34587;48.816;9.420;2023-03-04T08:49:00;99495.72;;;0.82;82.98
48792;BME280;34587;48.816;9.420;2023-03-04T08:51:26;99493.66;;;0.70;83.11
48792;BME280;34587;48.816;9.420;2023-03-04T08:53:51;99494.78;;;0.79;83.28
48792;BME280;34587;48.816;9.420;2023-03-04T08:56:17;99490.78;;;0.87;82.93
48792;BME280;34587;48.816;9.420;2023-03-04T08:58:42;99485.97;;;0.69;82.61
48792;BME280;34587;48.816;9.420;2023-03-04T09:01:09;99488.63;;;0.99;82.14
48792;BME280;34587;48.816;9.420;2023-03-04T09:03:35;99493.09;;;1.06;81.42
48792;BME280;34587;48.816;9.420;2023-03-04T09:06:02;99492.63;;;0.91;81.18
48792;BME280;34587;48.816;9.420;2023-03-04T09:08:28;99504.47;;;0.89;81.86
48792;BME280;34587;48.816;9.420;2023-03-04T09:10:54;99498.03;;;1.00;81.41
48792;BME280;34587;48.816;9.420;2023-03-04T09:13:22;99505.34;;;0.89;81.87
48792;BME280;34587;48.816;9.420;2023-03-04T09:15:49;99502.00;;;0.92;82.22
48792;BME280;34587;48.816;9.420;2023-03-04T09:18:15;99503.03;;;0.97;81.36
48792;BME280;34587;48.816;9.420;2023-03-04T09:20:41;99507.75;;;0.85;81.77
48792;BME280;34587;48.816;9.420;2023-03-04T09:23:07;99498.50;;;1.15;82.70
48792;BME280;34587;48.816;9.420;2023-03-04T09:25:34;99507.47;;;1.02;81.47
48792;BME280;34587;48.816;9.420;2023-03-04T09:27:59;99505.91;;;0.81;81.88
48792;BME280;34587;48.816;9.420;2023-03-04T09:30:24;99505.38;;;0.91;82.88
48792;BME280;34587;48.816;9.420;2023-03-04T09:32:49;99500.53;;;0.98;82.34
48792;BME280;34587;48.816;9.420;2023-03-04T09:35:15;99503.97;;;1.00;82.28
48792;BME280;34587;48.816;9.420;2023-03-04T09:37:40;99503.31;;;1.06;82.28
48792;BME280;34587;48.816;9.420;2023-03-04T09:40:06;99505.34;;;1.16;81.92
48792;BME280;34587;48.816;9.420;2023-03-04T09:42:44;99495.78;;;1.38;80.79
48792;BME280;34587;48.816;9.420;2023-03-04T09:45:15;99495.56;;;1.59;79.32
48792;BME280;34587;48.816;9.420;2023-03-04T09:47:42;99493.81;;;1.88;78.74
48792;BME280;34587;48.816;9.420;2023-03-04T09:50:10;99500.50;;;1.83;77.52
48792;BME280;34587;48.816;9.420;2023-03-04T09:55:30;99504.16;;;1.91;77.52
48792;BME280;34587;48.816;9.420;2023-03-04T09:58:20;99501.13;;;2.04;76.73
48792;BME280;34587;48.816;9.420;2023-03-04T10:03:33;99500.69;;;2.20;76.57
48792;BME280;34587;48.816;9.420;2023-03-04T10:06:06;99503.34;;;2.23;76.29
48792;BME280;34587;48.816;9.420;2023-03-04T10:08:35;99507.06;;;2.35;75.71
48792;BME280;34587;48.816;9.420;2023-03-04T10:11:07;99502.41;;;2.20;76.41
48792;BME280;34587;48.816;9.420;2023-03-04T10:13:42;99501.28;;;2.10;76.34
48792;BME280;34587;48.816;9.420;2023-03-04T10:16:14;99501.59;;;1.91;76.59
48792;BME280;34587;48.816;9.420;2023-03-04T10:18:57;99493.34;;;2.01;76.62
48792;BME280;34587;48.816;9.420;2023-03-04T10:21:29;99494.75;;;1.90;77.39
48792;BME280;34587;48.816;9.420;2023-03-04T10:23:56;99494.13;;;2.28;76.53
48792;BME280;34587;48.816;9.420;2023-03-04T10:26:22;99497.53;;;2.29;75.99
48792;BME280;34587;48.816;9.420;2023-03-04T10:28:52;99481.63;;;2.41;75.73
48792;BME280;34587;48.816;9.420;2023-03-04T10:31:36;99493.59;;;2.10;74.97
48792;BME280;34587;48.816;9.420;2023-03-04T10:34:03;99479.09;;;2.75;73.46
48792;BME280;34587;48.816;9.420;2023-03-04T10:38:59;99483.41;;;3.14;70.73
48792;BME280;34587;48.816;9.420;2023-03-04T10:41:28;99475.94;;;2.86;71.58
48792;BME280;34587;48.816;9.420;2023-03-04T10:44:04;99479.56;;;3.31;70.63
48792;BME280;34587;48.816;9.420;2023-03-04T10:46:49;99475.81;;;3.55;69.06
48792;BME280;34587;48.816;9.420;2023-03-04T10:49:16;99475.88;;;3.58;68.58
48792;BME280;34587;48.816;9.420;2023-03-04T10:51:51;99472.31;;;3.51;68.30
48792;BME280;34587;48.816;9.420;2023-03-04T10:54:25;99472.16;;;3.44;68.05
48792;BME280;34587;48.816;9.420;2023-03-04T10:57:00;99463.44;;;3.35;69.13
48792;BME280;34587;48.816;9.420;2023-03-04T10:59:55;99459.22;;;3.00;69.01
48792;BME280;34587;48.816;9.420;2023-03-04T11:02:31;99461.56;;;3.28;69.22
48792;BME280;34587;48.816;9.420;2023-03-04T11:05:33;99456.78;;;3.44;68.55
48792;BME280;34587;48.816;9.420;2023-03-04T11:07:59;99450.81;;;3.45;68.33
48792;BME280;34587;48.816;9.420;2023-03-04T11:10:30;99455.31;;;3.16;68.94
48792;BME280;34587;48.816;9.420;2023-03-04T11:13:22;99457.13;;;2.83;69.81
48792;BME280;34587;48.816;9.420;2023-03-04T11:15:58;99446.00;;;3.19;69.14
48792;BME280;34587;48.816;9.420;2023-03-04T11:18:41;99456.25;;;3.19;67.70
48792;BME280;34587;48.816;9.420;2023-03-04T11:21:16;99447.31;;;3.02;67.64
48792;BME280;34587;48.816;9.420;2023-03-04T11:23:44;99441.97;;;3.30;67.66
48792;BME280;34587;48.816;9.420;2023-03-04T11:26:20;99445.06;;;2.79;68.85
48792;BME280;34587;48.816;9.420;2023-03-04T11:31:32;99440.16;;;3.25;67.21
48792;BME280;34587;48.816;9.420;2023-03-04T11:34:03;99439.63;;;3.00;65.89
48792;BME280;34587;48.816;9.420;2023-03-04T11:37:11;99433.97;;;3.15;66.84
48792;BME280;34587;48.816;9.420;2023-03-04T11:40:07;99434.97;;;3.22;65.58
48792;BME280;34587;48.816;9.420;2023-03-04T11:44:57;99427.22;;;2.81;68.11
48792;BME280;34587;48.816;9.420;2023-03-04T11:50:21;99422.56;;;3.01;66.80
48792;BME280;34587;48.816;9.420;2023-03-04T11:53:06;99424.09;;;3.33;65.98
48792;BME280;34587;48.816;9.420;2023-03-04T11:55:46;99419.31;;;3.49;64.90
48792;BME280;34587;48.816;9.420;2023-03-04T12:01:12;99415.81;;;3.44;64.72
48792;BME280;34587;48.816;9.420;2023-03-04T12:17:22;99387.16;;;2.83;64.98
48792;BME280;34587;48.816;9.420;2023-03-04T12:31:27;99372.72;;;3.24;65.18
48792;BME280;34587;48.816;9.420;2023-03-04T12:37:11;99370.84;;;3.17;65.38
48792;BME280;34587;48.816;9.420;2023-03-04T12:40:05;99355.66;;;3.25;66.26
48792;BME280;34587;48.816;9.420;2023-03-04T12:43:21;99355.53;;;3.63;64.30
48792;BME280;34587;48.816;9.420;2023-03-04T12:46:26;99353.69;;;3.54;65.06
48792;BME280;34587;48.816;9.420;2023-03-04T12:49:14;99348.56;;;3.13;65.04
48792;BME280;34587;48.816;9.420;2023-03-04T12:51:49;99341.91;;;3.21;65.61
48792;BME280;34587;48.816;9.420;2023-03-04T12:54:38;99344.69;;;3.32;65.83
48792;BME280;34587;48.816;9.420;2023-03-04T12:57:16;99341.91;;;3.21;65.60
48792;BME280;34587;48.816;9.420;2023-03-04T13:02:44;99328.94;;;3.56;65.15
48792;BME280;34587;48.816;9.420;2023-03-04T13:24:58;99326.56;;;3.21;66.54
48792;BME280;34587;48.816;9.420;2023-03-04T13:27:43;99335.09;;;2.81;66.90
48792;BME280;34587;48.816;9.420;2023-03-04T13:35:49;99328.31;;;2.83;67.20
48792;BME280;34587;48.816;9.420;2023-03-04T13:48:44;99335.88;;;2.78;66.79
48792;BME280;34587;48.816;9.420;2023-03-04T13:51:35;99330.22;;;2.54;67.99
48792;BME280;34587;48.816;9.420;2023-03-04T14:01:33;99341.84;;;2.77;66.59
48792;BME280;34587;48.816;9.420;2023-03-04T14:04:01;99345.13;;;2.36;66.52
48792;BME280;34587;48.816;9.420;2023-03-04T14:06:33;99337.75;;;2.48;67.65
48792;BME280;34587;48.816;9.420;2023-03-04T14:08:59;99340.09;;;2.39;66.77
48792;BME280;34587;48.816;9.420;2023-03-04T14:11:38;99339.97;;;2.33;67.48
48792;BME280;34587;48.816;9.420;2023-03-04T14:14:15;99335.09;;;2.43;67.94
48792;BME280;34587;48.816;9.420;2023-03-04T14:16:53;99330.13;;;2.51;67.42
48792;BME280;34587;48.816;9.420;2023-03-04T14:19:33;99324.97;;;2.48;66.47
48792;BME280;34587;48.816;9.420;2023-03-04T14:22:02;99325.25;;;2.60;66.20
48792;BME280;34587;48.816;9.420;2023-03-04T14:25:39;99320.06;;;2.57;66.46
48792;BME280;34587;48.816;9.420;2023-03-04T14:27:39;99320.06;;;2.57;67.45
48792;BME280;34587;48.816;9.420;2023-03-04T14:30:17;99319.31;;;2.61;66.99
48792;BME280;34587;48.816;9.420;2023-03-04T14:32:43;99316.75;;;2.61;67.13
48792;BME280;34587;48.816;9.420;2023-03-04T14:35:22;99315.16;;;2.66;66.46
48792;BME280;34587;48.816;9.420;2023-03-04T14:37:56;99316.69;;;2.58;67.41
48792;BME280;34587;48.816;9.420;2023-03-04T14:40:25;99307.72;;;2.39;68.07
48792;BME280;34587;48.816;9.420;2023-03-04T14:43:05;99315.50;;;2.44;67.81
48792;BME280;34587;48.816;9.420;2023-03-04T14:45:32;99302.28;;;2.25;67.74
48792;BME280;34587;48.816;9.420;2023-03-04T14:48:01;99308.97;;;2.20;67.72
48792;BME280;34587;48.816;9.420;2023-03-04T14:50:28;99314.78;;;2.51;67.94
48792;BME280;34587;48.816;9.420;2023-03-04T14:53:24;99307.47;;;2.28;67.78
48792;BME280;34587;48.816;9.420;2023-03-04T14:56:03;99304.50;;;2.48;67.34
48792;BME280;34587;48.816;9.420;2023-03-04T14:58:31;99289.91;;;2.42;67.12
48792;BME280;34587;48.816;9.420;2023-03-04T15:01:16;99298.66;;;2.17;67.42
48792;BME280;34587;48.816;9.420;2023-03-04T15:04:29;99295.88;;;2.43;67.85
48792;BME280;34587;48.816;9.420;2023-03-04T15:06:32;99294.13;;;2.42;67.42
48792;BME280;34587;48.816;9.420;2023-03-04T15:17:39;99292.69;;;2.17;67.72
48792;BME280;34587;48.816;9.420;2023-03-04T15:25:12;99294.13;;;2.04;67.34
48792;BME280;34587;48.816;9.420;2023-03-04T15:27:41;99294.63;;;2.27;67.13
48792;BME280;34587;48.816;9.420;2023-03-04T15:30:15;99293.72;;;2.23;67.01
48792;BME280;34587;48.816;9.420;2023-03-04T15:32:40;99296.66;;;2.40;66.44
48792;BME280;34587;48.816;9.420;2023-03-04T15:35:08;99296.00;;;2.49;66.09
48792;BME280;34587;48.816;9.420;2023-03-04T15:37:33;99285.91;;;2.55;66.45
48792;BME280;34587;48.816;9.420;2023-03-04T15:39:59;99292.63;;;2.50;65.75
48792;BME280;34587;48.816;9.420;2023-03-04T15:42:24;99289.78;;;2.38;66.67
48792;BME280;34587;48.816;9.420;2023-03-04T15:44:49;99287.28;;;2.41;67.08
48792;BME280;34587;48.816;9.420;2023-03-04T15:47:15;99292.06;;;2.25;67.01
48792;BME280;34587;48.816;9.420;2023-03-04T15:49:41;99291.84;;;2.16;67.47
48792;BME280;34587;48.816;9.420;2023-03-04T15:52:16;99290.25;;;2.21;67.20
48792;BME280;34587;48.816;9.420;2023-03-04T15:54:42;99299.22;;;2.04;67.26
48792;BME280;34587;48.816;9.420;2023-03-04T15:57:18;99289.13;;;2.10;68.04
48792;BME280;34587;48.816;9.420;2023-03-04T15:59:44;99297.03;;;1.85;68.28
48792;BME280;34587;48.816;9.420;2023-03-04T16:02:17;99290.34;;;2.24;68.36
48792;BME280;34587;48.816;9.420;2023-03-04T16:04:43;99289.38;;;2.19;67.96
48792;BME280;34587;48.816;9.420;2023-03-04T16:07:18;99283.63;;;2.29;66.64
48792;BME280;34587;48.816;9.420;2023-03-04T16:09:45;99294.13;;;2.04;67.73
48792;BME280;34587;48.816;9.420;2023-03-04T16:12:11;99287.53;;;2.14;67.90
48792;BME280;34587;48.816;9.420;2023-03-04T16:14:37;99282.13;;;2.03;67.68
48792;BME280;34587;48.816;9.420;2023-03-04T16:17:03;99286.72;;;2.16;67.32
48792;BME280;34587;48.816;9.420;2023-03-04T16:19:28;99285.88;;;2.16;67.74
48792;BME280;34587;48.816;9.420;2023-03-04T16:21:54;99284.91;;;2.12;67.90
48792;BME280;34587;48.816;9.420;2023-03-04T16:24:19;99285.13;;;2.21;67.51
48792;BME280;34587;48.816;9.420;2023-03-04T16:26:46;99291.69;;;2.10;67.46
48792;BME280;34587;48.816;9.420;2023-03-04T16:29:11;99284.38;;;2.25;67.87
48792;BME280;34587;48.816;9.420;2023-03-04T16:31:37;99288.63;;;2.23;67.57
48792;BME280;34587;48.816;9.420;2023-03-04T16:34:02;99285.88;;;2.17;67.48
48792;BME280;34587;48.816;9.420;2023-03-04T16:36:27;99290.34;;;2.24;67.18
48792;BME280;34587;48.816;9.420;2023-03-04T16:38:57;99279.25;;;2.24;67.48
48792;BME280;34587;48.816;9.420;2023-03-04T16:41:27;99289.63;;;2.31;67.04
48792;BME280;34587;48.816;9.420;2023-03-04T16:43:57;99290.41;;;2.27;67.33
48792;BME280;34587;48.816;9.420;2023-03-04T16:46:23;99291.94;;;2.21;68.15
48792;BME280;34587;48.816;9.420;2023-03-04T16:48:48;99290.13;;;2.17;68.64
48792;BME280;34587;48.816;9.420;2023-03-04T16:51:16;99292.56;;;2.11;68.96
48792;BME280;34587;48.816;9.420;2023-03-04T16:53:44;99296.84;;;2.12;68.96
48792;BME280;34587;48.816;9.420;2023-03-04T16:56:14;99291.84;;;2.16;69.77
48792;BME280;34587;48.816;9.420;2023-03-04T16:58:40;99292.81;;;2.21;68.24
48792;BME280;34587;48.816;9.420;2023-03-04T17:01:06;99293.41;;;2.11;69.14
48792;BME280;34587;48.816;9.420;2023-03-04T17:03:35;99293.38;;;2.10;69.49
48792;BME280;34587;48.816;9.420;2023-03-04T17:06:00;99292.56;;;2.11;69.96
48792;BME280;34587;48.816;9.420;2023-03-04T17:08:25;99296.94;;;2.16;68.01
48792;BME280;34587;48.816;9.420;2023-03-04T17:10:51;99293.50;;;2.14;67.80
48792;BME280;34587;48.816;9.420;2023-03-04T17:13:16;99296.06;;;2.14;67.70
48792;BME280;34587;48.816;9.420;2023-03-04T17:15:41;99287.47;;;2.12;67.39
48792;BME280;34587;48.816;9.420;2023-03-04T17:18:09;99294.16;;;2.07;69.39
48792;BME280;34587;48.816;9.420;2023-03-04T17:20:34;99294.38;;;2.15;68.40
48792;BME280;34587;48.816;9.420;2023-03-04T17:22:59;99299.44;;;2.13;68.34
48792;BME280;34587;48.816;9.420;2023-03-04T17:25:25;99296.72;;;2.07;68.91
48792;BME280;34587;48.816;9.420;2023-03-04T17:27:50;99300.25;;;2.12;69.17
48792;BME280;34587;48.816;9.420;2023-03-04T17:30:16;99298.66;;;2.16;68.53
48792;BME280;34587;48.816;9.420;2023-03-04T17:32:41;99296.94;;;2.16;69.32
48792;BME280;34587;48.816;9.420;2023-03-04T17:35:07;99303.88;;;2.20;68.60
48792;BME280;34587;48.816;9.420;2023-03-04T17:37:33;99313.88;;;2.11;68.71
48792;BME280;34587;48.816;9.420;2023-03-04T17:40:00;99309.63;;;2.12;69.14
48792;BME280;34587;48.816;9.420;2023-03-04T17:42:26;99313.13;;;2.15;68.91
48792;BME280;34587;48.816;9.420;2023-03-04T17:44:51;99317.34;;;2.13;69.11
48792;BME280;34587;48.816;9.420;2023-03-04T17:47:16;99311.28;;;2.10;67.94
48792;BME280;34587;48.816;9.420;2023-03-04T17:49:42;99310.34;;;2.06;68.24
48792;BME280;34587;48.816;9.420;2023-03-04T17:52:07;99310.41;;;2.09;68.44
48792;BME280;34587;48.816;9.420;2023-03-04T17:54:32;99308.63;;;2.05;68.40
48792;BME280;34587;48.816;9.420;2023-03-04T17:57:00;99307.97;;;2.14;68.54
48792;BME280;34587;48.816;9.420;2023-03-04T17:59:25;99302.78;;;2.11;68.53
48792;BME280;34587;48.816;9.420;2023-03-04T18:01:50;99297.69;;;2.12;69.04
48792;BME280;34587;48.816;9.420;2023-03-04T18:04:16;99298.63;;;2.14;68.12
48792;BME280;34587;48.816;9.420;2023-03-04T18:06:41;99297.97;;;2.23;67.83
48792;BME280;34587;48.816;9.420;2023-03-04T18:09:07;99300.69;;;2.30;67.98
48792;BME280;34587;48.816;9.420;2023-03-04T18:11:35;99300.66;;;2.27;67.79
48792;BME280;34587;48.816;9.420;2023-03-04T18:14:00;99303.84;;;2.19;71.16
48792;BME280;34587;48.816;9.420;2023-03-04T18:16:26;99297.75;;;2.14;70.52
48792;BME280;34587;48.816;9.420;2023-03-04T18:18:53;99297.69;;;2.12;71.72
48792;BME280;34587;48.816;9.420;2023-03-04T18:21:21;99285.00;;;2.15;69.08
48792;BME280;34587;48.816;9.420;2023-03-04T18:23:47;99289.25;;;2.15;72.01
48792;BME280;34587;48.816;9.420;2023-03-04T18:26:12;99286.50;;;2.07;70.49
48792;BME280;34587;48.816;9.420;2023-03-04T18:28:38;99289.34;;;2.18;70.98
48792;BME280;34587;48.816;9.420;2023-03-04T18:31:03;99285.00;;;2.15;69.56
48792;BME280;34587;48.816;9.420;2023-03-04T18:33:29;99290.03;;;2.12;70.33
48792;BME280;34587;48.816;9.420;2023-03-04T18:36:03;99289.06;;;2.07;70.41
48792;BME280;34587;48.816;9.420;2023-03-04T18:38:29;99280.03;;;2.21;69.37
48792;BME280;34587;48.816;9.420;2023-03-04T18:41:00;99288.38;;;2.14;69.40
48792;BME280;34587;48.816;9.420;2023-03-04T18:43:26;99289.03;;;2.05;70.70
48792;BME280;34587;48.816;9.420;2023-03-04T18:46:04;99288.25;;;2.08;70.58
48792;BME280;34587;48.816;9.420;2023-03-04T18:50:57;99284.78;;;2.06;71.24
48792;BME280;34587;48.816;9.420;2023-03-04T18:53:25;99281.50;;;2.12;69.84
48792;BME280;34587;48.816;9.420;2023-03-04T18:55:51;99284.78;;;2.06;71.76
48792;BME280;34587;48.816;9.420;2023-03-04T18:58:17;99284.91;;;2.12;71.11
48792;BME280;34587;48.816;9.420;2023-03-04T19:00:43;99276.22;;;2.04;70.26
48792;BME280;34587;48.816;9.420;2023-03-04T19:03:11;99271.13;;;2.04;70.67
48792;BME280;34587;48.816;9.420;2023-03-04T19:05:36;99266.88;;;2.04;71.47
48792;BME280;34587;48.816;9.420;2023-03-04T19:08:02;99266.13;;;2.10;72.05
48792;BME280;34587;48.816;9.420;2023-03-04T19:10:29;99269.34;;;2.01;70.94
48792;BME280;34587;48.816;9.420;2023-03-04T19:12:54;99271.03;;;2.01;70.91
48792;BME280;34587;48.816;9.420;2023-03-04T19:15:21;99275.19;;;1.97;71.82
48792;BME280;34587;48.816;9.420;2023-03-04T19:17:47;99269.97;;;1.93;71.25
48792;BME280;34587;48.816;9.420;2023-03-04T19:20:14;99277.59;;;1.91;71.88
48792;BME280;34587;48.816;9.420;2023-03-04T19:22:40;99271.50;;;1.85;72.15